sensor_id;sensor_type;location;lat;lon;timestamp;temperature;humidity
44170;DHT22;29836;52.286;9.576;2023-03-16T00:00:52;-0.90;99.90
44170;DHT22;29836;52.286;9.576;2023-03-16T00:03:18;-1.00;99.90
44170;DHT22;29836;52.286;9.576;2023-03-16T00:05:45;-1.10;99.90
44170;DHT22;29836;52.286;9.576;2023-03-16T00:08:11;-1.10;99.90
44170;DHT22;29836;52.286;9.576;2023-03-16T00:10:36;-1.30;99.90
44170;DHT22;29836;52.286;9.576;2023-03-16T00:13:02;-1.40;99.90
44170;DHT22;29836;52.286;9.576;2023-03-16T00:15:27;-1.40;99.90
44170;DHT22;29836;52.286;9.576;2023-03-16T00:17:54;-1.10;99.90
44170;DHT22;29836;52.286;9.576;2023-03-16T00:20:19;-0.90;99.90
44170;DHT22;29836;52.286;9.576;2023-03-16T00:22:45;-0.70;99.90
44170;DHT22;29836;52.286;9.576;2023-03-16T00:25:12;-0.40;99.90
44170;DHT22;29836;52.286;9.576;2023-03-16T00:27:39;-0.20;99.90
44170;DHT22;29836;52.286;9.576;2023-03-16T00:30:05;0.00;99.90
44170;DHT22;29836;52.286;9.576;2023-03-16T00:32:35;0.30;99.90
44170;DHT22;29836;52.286;9.576;2023-03-16T00:35:03;0.40;99.90
44170;DHT22;29836;52.286;9.576;2023-03-16T00:37:30;0.60;99.90
44170;DHT22;29836;52.286;9.576;2023-03-16T00:39:57;0.50;99.90
44170;DHT22;29836;52.286;9.576;2023-03-16T00:42:26;0.70;99.90
44170;DHT22;29836;52.286;9.576;2023-03-16T00:44:59;0.80;99.90
44170;DHT22;29836;52.286;9.576;2023-03-16T00:47:28;0.80;99.90
44170;DHT22;29836;52.286;9.576;2023-03-16T00:49:55;0.80;99.90
44170;DHT22;29836;52.286;9.576;2023-03-16T00:52:21;1.00;99.90
44170;DHT22;29836;52.286;9.576;2023-03-16T00:54:48;1.10;99.90
44170;DHT22;29836;52.286;9.576;2023-03-16T00:57:16;1.10;99.90
44170;DHT22;29836;52.286;9.576;2023-03-16T00:59:43;1.10;99.90
44170;DHT22;29836;52.286;9.576;2023-03-16T01:02:10;1.10;99.90
44170;DHT22;29836;52.286;9.576;2023-03-16T01:04:36;1.30;99.90
44170;DHT22;29836;52.286;9.576;2023-03-16T01:07:03;1.20;99.90
44170;DHT22;29836;52.286;9.576;2023-03-16T01:09:29;1.20;99.90
44170;DHT22;29836;52.286;9.576;2023-03-16T01:11:54;1.20;99.90
44170;DHT22;29836;52.286;9.576;2023-03-16T01:14:20;1.10;99.90
44170;DHT22;29836;52.286;9.576;2023-03-16T01:16:47;1.20;99.90
44170;DHT22;29836;52.286;9.576;2023-03-16T01:19:13;1.20;99.90
44170;DHT22;29836;52.286;9.576;2023-03-16T01:21:40;1.30;99.90
44170;DHT22;29836;52.286;9.576;2023-03-16T01:24:07;1.20;99.90
44170;DHT22;29836;52.286;9.576;2023-03-16T01:26:33;1.20;99.90
44170;DHT22;29836;52.286;9.576;2023-03-16T01:28:58;1.10;99.90
44170;DHT22;29836;52.286;9.576;2023-03-16T01:31:24;0.90;99.90
44170;DHT22;29836;52.286;9.576;2023-03-16T01:33:50;0.80;99.90
44170;DHT22;29836;52.286;9.576;2023-03-16T01:36:17;0.70;99.90
44170;DHT22;29836;52.286;9.576;2023-03-16T01:38:43;0.60;99.90
44170;DHT22;29836;52.286;9.576;2023-03-16T01:41:09;0.50;99.90
44170;DHT22;29836;52.286;9.576;2023-03-16T01:43:37;0.30;99.90
44170;DHT22;29836;52.286;9.576;2023-03-16T01:48:39;0.10;99.90
44170;DHT22;29836;52.286;9.576;2023-03-16T01:51:23;0.10;99.90
44170;DHT22;29836;52.286;9.576;2023-03-16T01:54:01;0.30;99.90
44170;DHT22;29836;52.286;9.576;2023-03-16T01:56:34;0.20;99.90
44170;DHT22;29836;52.286;9.576;2023-03-16T01:59:06;0.10;99.90
44170;DHT22;29836;52.286;9.576;2023-03-16T02:01:34;0.10;99.90
44170;DHT22;29836;52.286;9.576;2023-03-16T02:04:18;0.00;99.90
44170;DHT22;29836;52.286;9.576;2023-03-16T02:06:47;-0.10;99.90
44170;DHT22;29836;52.286;9.576;2023-03-16T02:09:14;-0.20;99.90
44170;DHT22;29836;52.286;9.576;2023-03-16T02:11:40;-0.20;99.90
44170;DHT22;29836;52.286;9.576;2023-03-16T02:14:09;-0.20;99.90
44170;DHT22;29836;52.286;9.576;2023-03-16T02:16:35;-0.20;99.90
44170;DHT22;29836;52.286;9.576;2023-03-16T02:19:00;0.10;99.90
44170;DHT22;29836;52.286;9.576;2023-03-16T02:21:43;0.20;99.90
44170;DHT22;29836;52.286;9.576;2023-03-16T02:24:13;0.20;99.90
44170;DHT22;29836;52.286;9.576;2023-03-16T02:26:43;0.10;99.90
44170;DHT22;29836;52.286;9.576;2023-03-16T02:32:06;0.40;99.90
44170;DHT22;29836;52.286;9.576;2023-03-16T02:34:31;0.30;99.90
44170;DHT22;29836;52.286;9.576;2023-03-16T02:36:57;0.30;99.90
44170;DHT22;29836;52.286;9.576;2023-03-16T02:39:23;0.20;99.90
44170;DHT22;29836;52.286;9.576;2023-03-16T02:41:49;0.20;99.90
44170;DHT22;29836;52.286;9.576;2023-03-16T02:44:27;0.30;99.90
44170;DHT22;29836;52.286;9.576;2023-03-16T02:47:01;0.30;99.90
44170;DHT22;29836;52.286;9.576;2023-03-16T02:49:39;0.40;99.90
44170;DHT22;29836;52.286;9.576;2023-03-16T02:52:07;0.30;99.90
44170;DHT22;29836;52.286;9.576;2023-03-16T02:54:33;0.20;99.90
44170;DHT22;29836;52.286;9.576;2023-03-16T02:56:59;0.20;99.90
44170;DHT22;29836;52.286;9.576;2023-03-16T02:59:24;0.20;99.90
44170;DHT22;29836;52.286;9.576;2023-03-16T03:01:50;0.10;99.90
44170;DHT22;29836;52.286;9.576;2023-03-16T03:04:16;0.00;99.90
44170;DHT22;29836;52.286;9.576;2023-03-16T03:06:42;-0.10;99.90
44170;DHT22;29836;52.286;9.576;2023-03-16T03:09:08;-0.20;99.90
44170;DHT22;29836;52.286;9.576;2023-03-16T03:11:36;-0.30;99.90
44170;DHT22;29836;52.286;9.576;2023-03-16T03:14:02;-0.40;99.90
44170;DHT22;29836;52.286;9.576;2023-03-16T03:16:28;-0.40;99.90
44170;DHT22;29836;52.286;9.576;2023-03-16T03:18:54;-0.40;99.90
44170;DHT22;29836;52.286;9.576;2023-03-16T03:21:20;-0.40;99.90
44170;DHT22;29836;52.286;9.576;2023-03-16T03:23:46;-0.40;99.90
44170;DHT22;29836;52.286;9.576;2023-03-16T03:26:13;-0.50;99.90
44170;DHT22;29836;52.286;9.576;2023-03-16T03:28:39;-0.60;99.90
44170;DHT22;29836;52.286;9.576;2023-03-16T03:31:20;-0.70;99.90
44170;DHT22;29836;52.286;9.576;2023-03-16T03:33:46;-0.70;99.90
44170;DHT22;29836;52.286;9.576;2023-03-16T03:36:12;-0.90;99.90
44170;DHT22;29836;52.286;9.576;2023-03-16T03:38:37;-0.90;99.90
44170;DHT22;29836;52.286;9.576;2023-03-16T03:41:04;-0.90;99.90
44170;DHT22;29836;52.286;9.576;2023-03-16T03:43:32;-1.00;99.90
44170;DHT22;29836;52.286;9.576;2023-03-16T03:45:59;-1.20;99.90
44170;DHT22;29836;52.286;9.576;2023-03-16T03:48:25;-1.40;99.90
44170;DHT22;29836;52.286;9.576;2023-03-16T03:50:51;-1.50;99.90
44170;DHT22;29836;52.286;9.576;2023-03-16T03:53:17;-1.50;99.90
44170;DHT22;29836;52.286;9.576;2023-03-16T03:55:42;-1.50;99.90
44170;DHT22;29836;52.286;9.576;2023-03-16T03:58:08;-1.40;99.90
44170;DHT22;29836;52.286;9.576;2023-03-16T04:00:33;-1.40;99.90
44170;DHT22;29836;52.286;9.576;2023-03-16T04:03:00;-1.30;99.90
44170;DHT22;29836;52.286;9.576;2023-03-16T04:05:25;-1.30;99.90
44170;DHT22;29836;52.286;9.576;2023-03-16T04:07:52;-1.30;99.90
44170;DHT22;29836;52.286;9.576;2023-03-16T04:10:22;-1.20;99.90
44170;DHT22;29836;52.286;9.576;2023-03-16T04:12:48;-1.20;99.90
44170;DHT22;29836;52.286;9.576;2023-03-16T04:15:14;-1.20;99.90
44170;DHT22;29836;52.286;9.576;2023-03-16T04:17:39;-1.20;99.90
44170;DHT22;29836;52.286;9.576;2023-03-16T04:20:05;-1.20;99.90
44170;DHT22;29836;52.286;9.576;2023-03-16T04:22:39;-1.10;99.90
44170;DHT22;29836;52.286;9.576;2023-03-16T04:25:07;-1.00;99.90
44170;DHT22;29836;52.286;9.576;2023-03-16T04:27:33;-1.00;99.90
44170;DHT22;29836;52.286;9.576;2023-03-16T04:30:05;-1.10;99.90
44170;DHT22;29836;52.286;9.576;2023-03-16T04:32:32;-1.10;99.90
44170;DHT22;29836;52.286;9.576;2023-03-16T04:34:58;-1.00;99.90
44170;DHT22;29836;52.286;9.576;2023-03-16T04:37:23;-1.00;99.90
44170;DHT22;29836;52.286;9.576;2023-03-16T04:39:49;-1.00;99.90
44170;DHT22;29836;52.286;9.576;2023-03-16T04:42:14;-1.00;99.90
44170;DHT22;29836;52.286;9.576;2023-03-16T04:44:40;-1.00;99.90
44170;DHT22;29836;52.286;9.576;2023-03-16T04:47:09;-1.10;99.90
44170;DHT22;29836;52.286;9.576;2023-03-16T04:49:34;-1.10;99.90
44170;DHT22;29836;52.286;9.576;2023-03-16T04:52:00;-1.20;99.90
44170;DHT22;29836;52.286;9.576;2023-03-16T04:54:26;-1.10;99.90
44170;DHT22;29836;52.286;9.576;2023-03-16T04:56:52;-1.10;99.90
44170;DHT22;29836;52.286;9.576;2023-03-16T04:59:17;-1.10;99.90
44170;DHT22;29836;52.286;9.576;2023-03-16T05:01:43;-1.10;99.90
44170;DHT22;29836;52.286;9.576;2023-03-16T05:04:09;-1.10;99.90
44170;DHT22;29836;52.286;9.576;2023-03-16T05:06:34;-1.10;99.90
44170;DHT22;29836;52.286;9.576;2023-03-16T05:09:00;-1.20;99.90
44170;DHT22;29836;52.286;9.576;2023-03-16T05:11:26;-1.20;99.90
44170;DHT22;29836;52.286;9.576;2023-03-16T05:13:51;-1.10;99.90
44170;DHT22;29836;52.286;9.576;2023-03-16T05:16:17;-1.00;99.90
44170;DHT22;29836;52.286;9.576;2023-03-16T05:18:42;-0.90;99.90
44170;DHT22;29836;52.286;9.576;2023-03-16T05:21:08;-0.80;99.90
44170;DHT22;29836;52.286;9.576;2023-03-16T05:23:33;-0.80;99.90
44170;DHT22;29836;52.286;9.576;2023-03-16T05:25:59;-0.80;99.90
44170;DHT22;29836;52.286;9.576;2023-03-16T05:28:25;-0.60;99.90
44170;DHT22;29836;52.286;9.576;2023-03-16T05:30:51;-0.40;99.90
44170;DHT22;29836;52.286;9.576;2023-03-16T05:33:16;-0.30;99.90
44170;DHT22;29836;52.286;9.576;2023-03-16T05:35:42;-0.20;99.90
44170;DHT22;29836;52.286;9.576;2023-03-16T05:38:07;-0.30;99.90
44170;DHT22;29836;52.286;9.576;2023-03-16T05:40:34;-0.40;99.90
44170;DHT22;29836;52.286;9.576;2023-03-16T05:43:01;-0.50;99.90
44170;DHT22;29836;52.286;9.576;2023-03-16T05:45:27;-0.40;99.90
44170;DHT22;29836;52.286;9.576;2023-03-16T05:47:53;-0.30;99.90
44170;DHT22;29836;52.286;9.576;2023-03-16T05:50:18;-0.20;99.90
44170;DHT22;29836;52.286;9.576;2023-03-16T05:52:44;-0.10;99.90
44170;DHT22;29836;52.286;9.576;2023-03-16T05:55:11;0.10;99.90
44170;DHT22;29836;52.286;9.576;2023-03-16T05:57:39;0.10;99.90
44170;DHT22;29836;52.286;9.576;2023-03-16T06:00:07;0.20;99.90
44170;DHT22;29836;52.286;9.576;2023-03-16T06:02:36;0.30;99.90
44170;DHT22;29836;52.286;9.576;2023-03-16T06:05:03;0.30;99.90
44170;DHT22;29836;52.286;9.576;2023-03-16T06:07:28;0.30;99.90
44170;DHT22;29836;52.286;9.576;2023-03-16T06:09:54;0.20;99.90
44170;DHT22;29836;52.286;9.576;2023-03-16T06:12:19;0.10;99.90
44170;DHT22;29836;52.286;9.576;2023-03-16T06:14:45;0.10;99.90
44170;DHT22;29836;52.286;9.576;2023-03-16T06:17:10;0.10;99.90
44170;DHT22;29836;52.286;9.576;2023-03-16T06:19:36;0.30;99.90
44170;DHT22;29836;52.286;9.576;2023-03-16T06:22:01;0.70;99.90
44170;DHT22;29836;52.286;9.576;2023-03-16T06:24:27;1.20;99.90
44170;DHT22;29836;52.286;9.576;2023-03-16T06:26:52;1.60;99.90
44170;DHT22;29836;52.286;9.576;2023-03-16T06:29:18;1.90;99.90
44170;DHT22;29836;52.286;9.576;2023-03-16T06:31:44;2.20;99.90
44170;DHT22;29836;52.286;9.576;2023-03-16T06:34:09;2.30;99.90
44170;DHT22;29836;52.286;9.576;2023-03-16T06:36:35;2.40;99.90
44170;DHT22;29836;52.286;9.576;2023-03-16T06:39:04;2.50;99.90
44170;DHT22;29836;52.286;9.576;2023-03-16T06:41:30;2.70;99.90
44170;DHT22;29836;52.286;9.576;2023-03-16T06:43:55;2.80;99.90
44170;DHT22;29836;52.286;9.576;2023-03-16T06:46:21;2.90;99.90
44170;DHT22;29836;52.286;9.576;2023-03-16T06:48:47;3.10;99.90
44170;DHT22;29836;52.286;9.576;2023-03-16T06:51:12;3.40;99.90
44170;DHT22;29836;52.286;9.576;2023-03-16T06:53:38;3.50;99.90
44170;DHT22;29836;52.286;9.576;2023-03-16T06:56:03;3.50;99.90
44170;DHT22;29836;52.286;9.576;2023-03-16T06:58:29;3.60;99.90
44170;DHT22;29836;52.286;9.576;2023-03-16T07:00:55;3.80;99.90
44170;DHT22;29836;52.286;9.576;2023-03-16T07:03:21;3.90;99.90
44170;DHT22;29836;52.286;9.576;2023-03-16T07:05:46;4.00;99.90
44170;DHT22;29836;52.286;9.576;2023-03-16T07:08:12;4.00;99.90
44170;DHT22;29836;52.286;9.576;2023-03-16T07:10:39;4.10;99.90
44170;DHT22;29836;52.286;9.576;2023-03-16T07:13:05;4.30;99.90
44170;DHT22;29836;52.286;9.576;2023-03-16T07:15:30;4.40;99.90
44170;DHT22;29836;52.286;9.576;2023-03-16T07:17:56;4.30;99.90
44170;DHT22;29836;52.286;9.576;2023-03-16T07:20:21;4.20;99.90
44170;DHT22;29836;52.286;9.576;2023-03-16T07:22:47;4.10;99.90
44170;DHT22;29836;52.286;9.576;2023-03-16T07:25:16;4.10;99.90
44170;DHT22;29836;52.286;9.576;2023-03-16T07:27:41;4.10;99.90
44170;DHT22;29836;52.286;9.576;2023-03-16T07:30:10;4.20;99.90
44170;DHT22;29836;52.286;9.576;2023-03-16T07:32:39;4.10;99.90
44170;DHT22;29836;52.286;9.576;2023-03-16T07:35:04;4.20;99.90
44170;DHT22;29836;52.286;9.576;2023-03-16T07:37:30;4.30;99.90
44170;DHT22;29836;52.286;9.576;2023-03-16T07:39:56;4.40;99.90
44170;DHT22;29836;52.286;9.576;2023-03-16T07:42:22;4.20;99.90
44170;DHT22;29836;52.286;9.576;2023-03-16T07:44:47;4.30;99.90
44170;DHT22;29836;52.286;9.576;2023-03-16T07:47:13;4.30;99.90
44170;DHT22;29836;52.286;9.576;2023-03-16T07:49:39;4.20;99.90
44170;DHT22;29836;52.286;9.576;2023-03-16T07:52:06;4.20;99.90
44170;DHT22;29836;52.286;9.576;2023-03-16T07:54:31;4.00;99.90
44170;DHT22;29836;52.286;9.576;2023-03-16T07:56:57;3.80;99.90
44170;DHT22;29836;52.286;9.576;2023-03-16T07:59:22;3.90;99.90
44170;DHT22;29836;52.286;9.576;2023-03-16T08:01:47;4.00;99.90
44170;DHT22;29836;52.286;9.576;2023-03-16T08:04:13;4.10;99.90
44170;DHT22;29836;52.286;9.576;2023-03-16T08:06:39;4.30;99.90
44170;DHT22;29836;52.286;9.576;2023-03-16T08:09:04;4.80;99.90
44170;DHT22;29836;52.286;9.576;2023-03-16T08:11:30;5.30;99.90
44170;DHT22;29836;52.286;9.576;2023-03-16T08:13:55;5.90;99.90
44170;DHT22;29836;52.286;9.576;2023-03-16T08:16:25;5.50;99.90
44170;DHT22;29836;52.286;9.576;2023-03-16T08:18:51;5.90;99.90
44170;DHT22;29836;52.286;9.576;2023-03-16T08:21:18;6.60;98.50
44170;DHT22;29836;52.286;9.576;2023-03-16T08:23:43;7.30;97.90
44170;DHT22;29836;52.286;9.576;2023-03-16T08:26:17;8.10;94.60
44170;DHT22;29836;52.286;9.576;2023-03-16T08:28:43;8.80;91.80
44170;DHT22;29836;52.286;9.576;2023-03-16T08:31:15;9.20;92.00
44170;DHT22;29836;52.286;9.576;2023-03-16T08:33:45;9.00;89.30
44170;DHT22;29836;52.286;9.576;2023-03-16T08:36:13;9.20;87.90
44170;DHT22;29836;52.286;9.576;2023-03-16T08:38:40;9.60;85.70
44170;DHT22;29836;52.286;9.576;2023-03-16T08:41:06;9.40;81.20
44170;DHT22;29836;52.286;9.576;2023-03-16T08:43:32;9.30;82.40
44170;DHT22;29836;52.286;9.576;2023-03-16T08:45:58;9.10;81.50
44170;DHT22;29836;52.286;9.576;2023-03-16T08:48:25;9.10;78.60
44170;DHT22;29836;52.286;9.576;2023-03-16T08:50:50;9.20;82.60
44170;DHT22;29836;52.286;9.576;2023-03-16T08:53:16;9.90;77.10
44170;DHT22;29836;52.286;9.576;2023-03-16T08:55:43;10.00;77.50
44170;DHT22;29836;52.286;9.576;2023-03-16T08:58:10;10.00;75.90
44170;DHT22;29836;52.286;9.576;2023-03-16T09:00:37;10.30;75.50
44170;DHT22;29836;52.286;9.576;2023-03-16T09:03:03;10.30;73.50
44170;DHT22;29836;52.286;9.576;2023-03-16T09:05:29;9.20;74.70
44170;DHT22;29836;52.286;9.576;2023-03-16T09:07:55;8.20;79.00
44170;DHT22;29836;52.286;9.576;2023-03-16T09:10:21;9.10;78.40
44170;DHT22;29836;52.286;9.576;2023-03-16T09:12:51;9.90;75.50
44170;DHT22;29836;52.286;9.576;2023-03-16T09:15:18;9.60;74.10
44170;DHT22;29836;52.286;9.576;2023-03-16T09:17:45;10.60;75.30
44170;DHT22;29836;52.286;9.576;2023-03-16T09:20:13;11.00;70.80
44170;DHT22;29836;52.286;9.576;2023-03-16T09:22:40;11.00;71.60
44170;DHT22;29836;52.286;9.576;2023-03-16T09:25:06;11.00;69.20
44170;DHT22;29836;52.286;9.576;2023-03-16T09:27:33;10.80;70.80
44170;DHT22;29836;52.286;9.576;2023-03-16T09:30:02;10.20;69.80
44170;DHT22;29836;52.286;9.576;2023-03-16T09:32:27;10.40;70.00
44170;DHT22;29836;52.286;9.576;2023-03-16T09:34:54;10.40;69.60
44170;DHT22;29836;52.286;9.576;2023-03-16T09:37:20;10.60;70.60
44170;DHT22;29836;52.286;9.576;2023-03-16T09:39:47;10.70;72.10
44170;DHT22;29836;52.286;9.576;2023-03-16T09:42:25;10.70;67.80
44170;DHT22;29836;52.286;9.576;2023-03-16T09:45:13;10.60;67.50
44170;DHT22;29836;52.286;9.576;2023-03-16T09:47:41;10.50;67.70
44170;DHT22;29836;52.286;9.576;2023-03-16T09:50:15;10.90;67.30
44170;DHT22;29836;52.286;9.576;2023-03-16T09:53:12;11.50;71.30
44170;DHT22;29836;52.286;9.576;2023-03-16T09:55:42;11.30;74.50
44170;DHT22;29836;52.286;9.576;2023-03-16T09:58:19;10.40;78.20
44170;DHT22;29836;52.286;9.576;2023-03-16T10:01:10;10.50;77.40
44170;DHT22;29836;52.286;9.576;2023-03-16T10:04:02;10.50;79.20
44170;DHT22;29836;52.286;9.576;2023-03-16T10:06:31;10.80;74.80
44170;DHT22;29836;52.286;9.576;2023-03-16T10:09:18;10.70;80.20
44170;DHT22;29836;52.286;9.576;2023-03-16T10:11:48;11.70;78.60
44170;DHT22;29836;52.286;9.576;2023-03-16T10:14:28;11.50;75.50
44170;DHT22;29836;52.286;9.576;2023-03-16T10:17:02;11.00;76.90
44170;DHT22;29836;52.286;9.576;2023-03-16T10:19:42;11.30;80.70
44170;DHT22;29836;52.286;9.576;2023-03-16T10:22:23;12.10;68.30
44170;DHT22;29836;52.286;9.576;2023-03-16T10:25:21;13.30;65.50
44170;DHT22;29836;52.286;9.576;2023-03-16T10:27:48;14.20;67.00
44170;DHT22;29836;52.286;9.576;2023-03-16T10:30:34;12.20;74.90
44170;DHT22;29836;52.286;9.576;2023-03-16T10:33:03;11.80;72.90
44170;DHT22;29836;52.286;9.576;2023-03-16T10:35:50;12.20;64.20
44170;DHT22;29836;52.286;9.576;2023-03-16T10:38:50;12.30;62.10
44170;DHT22;29836;52.286;9.576;2023-03-16T10:43:43;12.80;70.50
44170;DHT22;29836;52.286;9.576;2023-03-16T10:46:10;13.00;67.90
44170;DHT22;29836;52.286;9.576;2023-03-16T10:48:36;13.20;66.00
44170;DHT22;29836;52.286;9.576;2023-03-16T10:51:06;12.80;61.10
44170;DHT22;29836;52.286;9.576;2023-03-16T10:53:35;11.50;59.30
44170;DHT22;29836;52.286;9.576;2023-03-16T10:56:22;10.40;61.90
44170;DHT22;29836;52.286;9.576;2023-03-16T10:58:49;10.00;64.90
44170;DHT22;29836;52.286;9.576;2023-03-16T11:01:22;9.80;64.80
44170;DHT22;29836;52.286;9.576;2023-03-16T11:03:53;9.90;66.00
44170;DHT22;29836;52.286;9.576;2023-03-16T11:06:25;10.20;65.60
44170;DHT22;29836;52.286;9.576;2023-03-16T11:09:02;10.30;63.40
44170;DHT22;29836;52.286;9.576;2023-03-16T11:11:31;10.60;64.90
44170;DHT22;29836;52.286;9.576;2023-03-16T11:14:00;10.80;66.00
44170;DHT22;29836;52.286;9.576;2023-03-16T11:16:33;10.50;63.80
44170;DHT22;29836;52.286;9.576;2023-03-16T11:19:29;10.20;67.30
44170;DHT22;29836;52.286;9.576;2023-03-16T11:27:03;10.00;66.20
44170;DHT22;29836;52.286;9.576;2023-03-16T11:29:57;10.00;65.30
44170;DHT22;29836;52.286;9.576;2023-03-16T11:32:47;9.80;68.10
44170;DHT22;29836;52.286;9.576;2023-03-16T11:35:21;9.80;64.60
44170;DHT22;29836;52.286;9.576;2023-03-16T11:41:00;9.90;69.60
44170;DHT22;29836;52.286;9.576;2023-03-16T11:46:05;10.30;67.70
44170;DHT22;29836;52.286;9.576;2023-03-16T11:48:42;10.30;65.60
44170;DHT22;29836;52.286;9.576;2023-03-16T11:51:33;10.00;65.10
44170;DHT22;29836;52.286;9.576;2023-03-16T11:56:33;9.30;66.00
44170;DHT22;29836;52.286;9.576;2023-03-16T12:01:53;9.30;67.00
44170;DHT22;29836;52.286;9.576;2023-03-16T12:10:37;9.10;68.10
44170;DHT22;29836;52.286;9.576;2023-03-16T12:16:20;9.50;66.80
44170;DHT22;29836;52.286;9.576;2023-03-16T12:18:54;9.70;74.50
44170;DHT22;29836;52.286;9.576;2023-03-16T12:21:30;9.70;70.60
44170;DHT22;29836;52.286;9.576;2023-03-16T12:24:04;9.60;69.10
44170;DHT22;29836;52.286;9.576;2023-03-16T12:26:37;9.90;70.00
44170;DHT22;29836;52.286;9.576;2023-03-16T12:29:24;9.90;67.30
44170;DHT22;29836;52.286;9.576;2023-03-16T12:34:52;10.30;66.60
44170;DHT22;29836;52.286;9.576;2023-03-16T12:40:27;10.40;63.90
44170;DHT22;29836;52.286;9.576;2023-03-16T12:43:05;10.30;64.70
44170;DHT22;29836;52.286;9.576;2023-03-16T12:45:51;10.20;65.80
44170;DHT22;29836;52.286;9.576;2023-03-16T12:48:27;10.50;66.00
44170;DHT22;29836;52.286;9.576;2023-03-16T12:50:59;10.50;65.80
44170;DHT22;29836;52.286;9.576;2023-03-16T12:55:51;10.00;67.00
44170;DHT22;29836;52.286;9.576;2023-03-16T12:58:17;10.00;65.80
44170;DHT22;29836;52.286;9.576;2023-03-16T13:00:43;10.30;67.70
44170;DHT22;29836;52.286;9.576;2023-03-16T13:03:20;10.50;68.20
44170;DHT22;29836;52.286;9.576;2023-03-16T13:05:56;10.40;74.40
44170;DHT22;29836;52.286;9.576;2023-03-16T13:08:22;10.40;72.60
44170;DHT22;29836;52.286;9.576;2023-03-16T13:11:05;10.40;71.50
44170;DHT22;29836;52.286;9.576;2023-03-16T13:13:32;10.30;72.90
44170;DHT22;29836;52.286;9.576;2023-03-16T13:16:09;10.20;72.00
44170;DHT22;29836;52.286;9.576;2023-03-16T13:18:46;10.00;68.10
44170;DHT22;29836;52.286;9.576;2023-03-16T13:21:19;9.80;69.10
44170;DHT22;29836;52.286;9.576;2023-03-16T13:26:44;9.40;73.20
44170;DHT22;29836;52.286;9.576;2023-03-16T13:29:28;9.40;73.80
44170;DHT22;29836;52.286;9.576;2023-03-16T13:31:57;9.60;70.40
44170;DHT22;29836;52.286;9.576;2023-03-16T13:34:30;9.50;71.50
44170;DHT22;29836;52.286;9.576;2023-03-16T13:36:58;9.50;71.60
44170;DHT22;29836;52.286;9.576;2023-03-16T13:39:28;9.70;70.40
44170;DHT22;29836;52.286;9.576;2023-03-16T13:42:16;9.80;69.80
44170;DHT22;29836;52.286;9.576;2023-03-16T13:44:43;9.60;74.30
44170;DHT22;29836;52.286;9.576;2023-03-16T13:47:16;9.70;72.30
44170;DHT22;29836;52.286;9.576;2023-03-16T13:49:56;9.60;70.60
44170;DHT22;29836;52.286;9.576;2023-03-16T13:52:28;9.50;72.40
44170;DHT22;29836;52.286;9.576;2023-03-16T13:54:55;9.50;70.60
44170;DHT22;29836;52.286;9.576;2023-03-16T13:57:24;9.40;71.60
44170;DHT22;29836;52.286;9.576;2023-03-16T13:59:51;9.20;73.60
44170;DHT22;29836;52.286;9.576;2023-03-16T14:02:25;9.10;72.30
44170;DHT22;29836;52.286;9.576;2023-03-16T14:04:50;9.00;73.60
44170;DHT22;29836;52.286;9.576;2023-03-16T14:07:18;9.00;71.80
44170;DHT22;29836;52.286;9.576;2023-03-16T14:09:45;8.90;73.70
44170;DHT22;29836;52.286;9.576;2023-03-16T14:12:17;9.00;74.80
44170;DHT22;29836;52.286;9.576;2023-03-16T14:14:49;8.90;71.90
44170;DHT22;29836;52.286;9.576;2023-03-16T14:17:19;9.00;71.30
44170;DHT22;29836;52.286;9.576;2023-03-16T14:19:55;9.00;72.50
44170;DHT22;29836;52.286;9.576;2023-03-16T14:22:26;9.00;70.50
44170;DHT22;29836;52.286;9.576;2023-03-16T14:24:56;8.90;71.00
44170;DHT22;29836;52.286;9.576;2023-03-16T14:33:03;8.80;71.80
44170;DHT22;29836;52.286;9.576;2023-03-16T14:35:39;8.70;73.90
44170;DHT22;29836;52.286;9.576;2023-03-16T14:38:28;8.60;72.30
44170;DHT22;29836;52.286;9.576;2023-03-16T14:41:02;8.60;72.20
44170;DHT22;29836;52.286;9.576;2023-03-16T14:43:31;8.70;71.10
44170;DHT22;29836;52.286;9.576;2023-03-16T14:45:59;8.70;70.60
44170;DHT22;29836;52.286;9.576;2023-03-16T14:48:25;8.60;72.70
44170;DHT22;29836;52.286;9.576;2023-03-16T14:50:56;8.70;71.10
44170;DHT22;29836;52.286;9.576;2023-03-16T14:53:22;8.70;74.40
44170;DHT22;29836;52.286;9.576;2023-03-16T14:55:56;8.70;70.70
44170;DHT22;29836;52.286;9.576;2023-03-16T14:58:23;8.60;73.30
44170;DHT22;29836;52.286;9.576;2023-03-16T15:00:49;8.60;71.60
44170;DHT22;29836;52.286;9.576;2023-03-16T15:03:21;8.50;72.90
44170;DHT22;29836;52.286;9.576;2023-03-16T15:05:49;8.40;76.10
44170;DHT22;29836;52.286;9.576;2023-03-16T15:08:22;8.30;76.70
44170;DHT22;29836;52.286;9.576;2023-03-16T15:10:51;8.30;73.70
44170;DHT22;29836;52.286;9.576;2023-03-16T15:13:19;8.30;75.80
44170;DHT22;29836;52.286;9.576;2023-03-16T15:16:04;8.30;74.30
44170;DHT22;29836;52.286;9.576;2023-03-16T15:18:31;8.40;74.30
44170;DHT22;29836;52.286;9.576;2023-03-16T15:20:58;8.50;75.20
44170;DHT22;29836;52.286;9.576;2023-03-16T15:23:24;8.50;75.00
44170;DHT22;29836;52.286;9.576;2023-03-16T15:25:51;8.50;72.90
44170;DHT22;29836;52.286;9.576;2023-03-16T15:28:24;8.50;74.00
44170;DHT22;29836;52.286;9.576;2023-03-16T15:30:55;8.50;74.50
44170;DHT22;29836;52.286;9.576;2023-03-16T15:33:22;8.40;73.10
44170;DHT22;29836;52.286;9.576;2023-03-16T15:35:49;8.50;71.70
44170;DHT22;29836;52.286;9.576;2023-03-16T15:38:19;8.50;71.40
44170;DHT22;29836;52.286;9.576;2023-03-16T15:40:46;8.40;72.30
44170;DHT22;29836;52.286;9.576;2023-03-16T15:43:14;8.40;74.10
44170;DHT22;29836;52.286;9.576;2023-03-16T15:45:41;8.30;72.70
44170;DHT22;29836;52.286;9.576;2023-03-16T15:48:08;8.30;70.20
44170;DHT22;29836;52.286;9.576;2023-03-16T15:50:34;8.30;70.50
44170;DHT22;29836;52.286;9.576;2023-03-16T15:53:32;8.20;70.40
44170;DHT22;29836;52.286;9.576;2023-03-16T15:56:02;8.20;69.80
44170;DHT22;29836;52.286;9.576;2023-03-16T15:58:30;8.20;70.20
44170;DHT22;29836;52.286;9.576;2023-03-16T16:00:57;8.20;71.10
44170;DHT22;29836;52.286;9.576;2023-03-16T16:03:24;8.10;73.80
44170;DHT22;29836;52.286;9.576;2023-03-16T16:05:50;8.10;70.50
44170;DHT22;29836;52.286;9.576;2023-03-16T16:08:16;8.10;72.50
44170;DHT22;29836;52.286;9.576;2023-03-16T16:10:42;8.10;73.80
44170;DHT22;29836;52.286;9.576;2023-03-16T16:13:29;8.00;72.90
44170;DHT22;29836;52.286;9.576;2023-03-16T16:15:58;7.90;74.20
44170;DHT22;29836;52.286;9.576;2023-03-16T16:18:27;7.80;75.40
44170;DHT22;29836;52.286;9.576;2023-03-16T16:20:55;7.80;73.80
44170;DHT22;29836;52.286;9.576;2023-03-16T16:23:22;7.80;73.70
44170;DHT22;29836;52.286;9.576;2023-03-16T16:25:48;7.80;72.00
44170;DHT22;29836;52.286;9.576;2023-03-16T16:28:23;7.80;74.20
44170;DHT22;29836;52.286;9.576;2023-03-16T16:30:50;7.80;73.80
44170;DHT22;29836;52.286;9.576;2023-03-16T16:35:57;7.70;77.10
44170;DHT22;29836;52.286;9.576;2023-03-16T16:38:24;7.50;77.00
44170;DHT22;29836;52.286;9.576;2023-03-16T16:40:53;7.50;75.80
44170;DHT22;29836;52.286;9.576;2023-03-16T16:43:39;7.50;77.20
44170;DHT22;29836;52.286;9.576;2023-03-16T16:49:10;7.40;78.80